Time;durP1;ratioP1;P1;durP2;ratioP2;P2;SDS_P1;SDS_P2;PMS_P1;PMS_P2;Temp;Humidity;BMP_temperature;BMP_pressure;BME280_temperature;BME280_humidity;BME280_pressure;Samples;Min_cycle;Max_cycle;Signal;HPM_P1;HPM_P2
2022/09/05 00:01:29;;;;;;;1.10;1.00;;;;;;;13.50;49.66;102007.41;1675772;84;21042;-73
2022/09/05 00:04:54;;;;;;;1.17;0.85;;;;;;;13.46;49.71;102010.91;1685740;84;21124;-73
2022/09/05 00:07:59;;;;;;;4.37;1.10;;;;;;;13.41;49.77;102007.46;1685574;84;21108;-73
2022/09/05 00:10:53;;;;;;;4.40;1.25;;;;;;;13.42;49.80;102009.63;1667510;84;21477;-73
2022/09/05 00:13:46;;;;;;;1.80;1.10;;;;;;;13.42;49.82;102006.59;1674782;84;21128;-74
2022/09/05 00:17:18;;;;;;;2.10;0.93;;;;;;;13.38;49.87;102010.08;1668024;84;20981;-74
2022/09/05 00:20:24;;;;;;;3.67;1.22;;;;;;;13.35;49.87;102007.49;1675957;84;21041;-73
2022/09/05 00:23:24;;;;;;;2.92;1.10;;;;;;;13.29;49.89;102003.63;1679223;82;21074;-75
2022/09/05 00:26:33;;;;;;;2.15;1.25;;;;;;;13.27;49.94;102006.66;1685864;84;21024;-74
2022/09/05 00:29:40;;;;;;;2.72;1.20;;;;;;;13.24;49.96;102002.78;1672147;83;21120;-74
2022/09/05 00:32:45;;;;;;;3.47;1.10;;;;;;;13.20;50.02;102008.42;1685701;84;21045;-74
2022/09/05 00:36:12;;;;;;;1.52;1.25;;;;;;;13.18;50.06;102002.38;1684975;84;21644;-74
2022/09/05 00:39:08;;;;;;;1.47;1.17;;;;;;;13.18;50.06;101998.91;1671833;83;21077;-75
2022/09/05 00:41:58;;;;;;;3.98;1.27;;;;;;;13.09;50.11;101998.92;1682982;84;21005;-74
2022/09/05 00:45:00;;;;;;;1.60;1.32;;;;;;;13.03;50.15;101999.81;1682379;84;22203;-74
2022/09/05 00:48:02;;;;;;;2.15;1.32;;;;;;;13.03;50.19;101998.95;1685917;84;21306;-74
2022/09/05 00:50:59;;;;;;;2.52;1.37;;;;;;;12.99;50.20;102002.02;1671731;84;21330;-74
2022/09/05 00:54:10;;;;;;;3.25;1.60;;;;;;;12.96;50.25;102008.52;1664607;84;21065;-74
2022/09/05 00:57:03;;;;;;;1.52;1.25;;;;;;;12.93;50.31;102002.04;1667700;84;21643;-74
2022/09/05 01:00:12;;;;;;;1.37;1.05;;;;;;;12.87;50.31;102013.73;1666089;84;21092;-74
2022/09/05 01:03:18;;;;;;;1.40;1.10;;;;;;;12.82;50.39;102020.68;1659313;84;21505;-74
2022/09/05 01:06:17;;;;;;;2.25;0.88;;;;;;;12.79;50.48;102016.36;1660960;84;21143;-74
2022/09/05 01:09:25;;;;;;;3.37;1.35;;;;;;;12.79;50.50;102016.80;1670830;84;21572;-74
2022/09/05 01:12:36;;;;;;;7.70;2.37;;;;;;;12.75;50.54;102013.77;1682516;85;21053;-74
2022/09/05 01:15:59;;;;;;;1.10;1.00;;;;;;;12.69;50.57;102015.95;1666121;85;20989;-74
2022/09/05 01:19:06;;;;;;;4.20;1.90;;;;;;;12.66;50.64;102010.77;1663033;85;21104;-73
2022/09/05 01:22:32;;;;;;;2.33;1.60;;;;;;;12.62;50.68;102004.28;1652182;84;21062;-73
2022/09/05 01:25:30;;;;;;;1.85;1.20;;;;;;;12.56;50.70;102009.92;1668383;83;21124;-74
2022/09/05 01:28:39;;;;;;;2.85;1.35;;;;;;;12.54;50.77;102013.38;1655357;83;21055;-74
2022/09/05 01:31:50;;;;;;;1.77;1.10;;;;;;;12.52;50.77;102014.68;1652477;86;21101;-74
2022/09/05 01:35:02;;;;;;;2.37;1.35;;;;;;;12.50;50.84;102014.25;1646633;86;20992;-74
2022/09/05 01:38:07;;;;;;;2.33;1.30;;;;;;;12.45;50.88;102014.72;1650729;86;20981;-74
2022/09/05 01:41:20;;;;;;;1.57;1.30;;;;;;;12.41;50.91;102017.75;1678670;83;20952;-74
2022/09/05 01:44:10;;;;;;;2.45;1.37;;;;;;;12.38;50.94;102021.64;1648130;86;21072;-74
2022/09/05 01:47:17;;;;;;;3.05;1.50;;;;;;;12.34;50.98;102019.05;1672474;85;21124;-73
2022/09/05 01:50:40;;;;;;;1.52;1.15;;;;;;;12.31;51.05;102022.95;1661417;85;21029;-73
2022/09/05 01:53:56;;;;;;;1.95;1.10;;;;;;;12.25;51.12;102018.62;1606309;85;21082;-73
2022/09/05 01:56:50;;;;;;;;;;;;;;;12.24;51.16;102020.78;1667990;82;21512;-73
2022/09/05 01:59:56;;;;;;;2.12;1.25;;;;;;;12.18;51.52;102025.55;1665954;84;20357;-74
2022/09/05 02:02:55;;;;;;;2.42;1.22;;;;;;;12.15;51.25;102022.09;1670996;85;21096;-74
2022/09/05 02:06:05;;;;;;;2.60;1.50;;;;;;;12.12;51.27;102025.54;1659437;85;21053;-74
2022/09/05 02:09:18;;;;;;;3.02;1.40;;;;;;;12.11;51.31;102030.30;1657976;85;20989;-74
2022/09/05 02:12:17;;;;;;;1.15;1.00;;;;;;;12.06;51.34;102030.72;1670447;85;21109;-74
2022/09/05 02:15:16;;;;;;;2.37;1.62;;;;;;;12.05;51.37;102038.50;1653474;85;21404;-75
2022/09/05 02:18:04;;;;;;;2.00;1.30;;;;;;;12.02;51.41;102038.50;1651474;85;21092;-74
2022/09/05 02:21:02;;;;;;;2.40;1.15;;;;;;;11.98;51.50;102042.81;1695409;83;21068;-74
2022/09/05 02:24:04;;;;;;;1.72;1.02;;;;;;;11.96;51.54;102045.00;1655695;84;21507;-74
2022/09/05 02:27:00;;;;;;;1.98;1.40;;;;;;;11.93;51.59;102043.27;1691649;84;20913;-74
2022/09/05 02:29:59;;;;;;;1.45;1.05;;;;;;;11.91;51.67;102039.81;1686926;83;21425;-74
2022/09/05 02:33:13;;;;;;;2.47;1.45;;;;;;;11.85;51.69;102040.67;1687221;84;20953;-74
2022/09/05 02:36:15;;;;;;;2.08;1.37;;;;;;;11.83;51.75;102042.82;1682256;84;20937;-74
2022/09/05 02:39:23;;;;;;;3.15;1.45;;;;;;;11.79;51.80;102043.25;1692814;84;20922;-74
2022/09/05 02:42:24;;;;;;;4.15;1.87;;;;;;;11.79;51.84;102044.97;1695341;83;20962;-74
2022/09/05 02:45:33;;;;;;;2.02;1.40;;;;;;;11.76;51.89;102052.28;1695495;84;20976;-74
2022/09/05 02:48:55;;;;;;;1.92;1.20;;;;;;;11.73;51.91;102048.81;1694244;83;20925;-74
2022/09/05 02:51:57;;;;;;;1.77;1.37;;;;;;;11.70;51.97;102043.19;1678729;83;20982;-75
2022/09/05 02:54:47;;;;;;;2.85;1.20;;;;;;;11.68;52.03;102051.39;1688421;84;20933;-75
2022/09/05 02:57:39;;;;;;;4.40;1.32;;;;;;;11.66;52.09;102049.66;1693653;84;21008;-75
2022/09/05 03:00:33;;;;;;;2.50;1.60;;;;;;;11.64;52.12;102047.49;1687105;83;21520;-75
2022/09/05 03:03:45;;;;;;;2.33;1.25;;;;;;;11.60;52.18;102051.80;1686852;83;21044;-75
2022/09/05 03:06:45;;;;;;;4.50;1.70;;;;;;;11.57;52.24;102046.61;1693195;83;21052;-75
2022/09/05 03:09:44;;;;;;;2.30;1.30;;;;;;;11.56;52.28;102046.17;1689403;83;21129;-75
2022/09/05 03:13:08;;;;;;;2.50;1.20;;;;;;;11.53;52.34;102047.46;1652564;83;21453;-75
2022/09/05 03:16:29;;;;;;;3.60;1.47;;;;;;;11.50;52.40;102047.02;1683173;84;21589;-76
2022/09/05 03:19:55;;;;;;;3.15;1.27;;;;;;;11.49;52.44;102048.31;1685779;84;21042;-76
2022/09/05 03:23:05;;;;;;;3.52;1.60;;;;;;;11.46;52.48;102050.89;1666153;85;21112;-76
2022/09/05 03:26:17;;;;;;;4.80;1.72;;;;;;;11.43;52.54;102057.39;1666342;85;21114;-75
2022/09/05 03:29:16;;;;;;;4.25;1.50;;;;;;;11.42;52.58;102055.66;1661681;85;21580;-75
2022/09/05 03:32:31;;;;;;;3.52;1.42;;;;;;;11.41;52.62;102055.22;1657057;85;21085;-73
2022/09/05 03:35:55;;;;;;;3.37;1.45;;;;;;;11.40;52.65;102058.67;1665498;85;21727;-74
2022/09/05 03:39:15;;;;;;;3.77;1.80;;;;;;;11.37;52.68;102053.05;1651487;85;21090;-75
2022/09/05 03:42:11;;;;;;;3.15;1.60;;;;;;;11.34;52.74;102055.62;1672887;85;21124;-75
2022/09/05 03:45:47;;;;;;;4.87;1.40;;;;;;;11.30;52.78;102058.20;1665137;85;21116;-75
2022/09/05 03:48:46;;;;;;;13.28;1.80;;;;;;;11.27;52.82;102061.20;1676486;85;21116;-75
2022/09/05 03:52:06;;;;;;;5.67;1.70;;;;;;;11.22;52.83;102066.80;1675409;83;21077;-75
2022/09/05 03:55:24;;;;;;;4.42;1.60;;;;;;;11.17;52.92;102069.79;1671775;85;20970;-75
2022/09/05 03:58:43;;;;;;;6.20;1.87;;;;;;;11.13;52.98;102074.52;1642751;84;21065;-74
2022/09/05 04:01:34;;;;;;;2.37;1.30;;;;;;;11.11;53.02;102072.34;1648838;84;21108;-74
2022/09/05 04:04:39;;;;;;;3.67;1.30;;;;;;;11.10;53.04;102070.62;1668020;85;21082;-74
2022/09/05 04:07:39;;;;;;;3.72;1.62;;;;;;;11.09;53.12;102075.36;1672041;83;21108;-74
2022/09/05 04:10:44;;;;;;;3.37;1.80;;;;;;;11.08;53.13;102077.94;1665606;83;21061;-73
2022/09/05 04:13:58;;;;;;;2.70;1.60;;;;;;;11.05;53.17;102077.92;1652907;85;47943;-75
2022/09/05 04:17:04;;;;;;;2.58;1.50;;;;;;;11.02;53.25;102078.77;1673245;85;21065;-75
2022/09/05 04:20:03;;;;;;;7.62;2.20;;;;;;;10.98;53.28;102077.45;1665481;83;21116;-75
2022/09/05 04:23:27;;;;;;;5.03;1.72;;;;;;;10.96;53.35;102074.84;1645106;85;21559;-76
2022/09/05 04:26:23;;;;;;;10.53;1.90;;;;;;;10.94;53.40;102080.02;1674079;83;21008;-73
2022/09/05 04:29:35;;;;;;;2.75;1.77;;;;;;;10.95;53.45;102078.30;1672243;83;21049;-72
2022/09/05 04:32:37;;;;;;;4.65;1.85;;;;;;;10.93;53.49;102078.28;1674888;83;21066;-73
2022/09/05 04:35:29;;;;;;;6.75;1.80;;;;;;;10.94;53.57;102083.03;1672602;83;21324;-73
2022/09/05 04:38:18;;;;;;;3.75;1.95;;;;;;;10.98;53.58;102086.50;1672934;85;21512;-73
2022/09/05 04:41:14;;;;;;;2.45;1.82;;;;;;;11.00;53.62;102083.07;1663298;83;21073;-73
2022/09/05 04:44:05;;;;;;;2.12;1.72;;;;;;;11.02;53.68;102085.23;1664213;85;21057;-73
2022/09/05 04:47:16;;;;;;;2.55;1.62;;;;;;;11.04;53.68;102087.41;1663565;85;21616;-74
2022/09/05 04:50:10;;;;;;;3.67;1.75;;;;;;;11.08;53.72;102097.35;1663246;85;21688;-73
2022/09/05 04:53:12;;;;;;;3.95;1.98;;;;;;;11.10;53.79;102093.91;1673798;84;21031;-75
2022/09/05 04:55:57;;;;;;;4.15;2.10;;;;;;;11.11;53.83;102091.77;1673351;85;21084;-75
2022/09/05 04:58:50;;;;;;;2.77;1.87;;;;;;;11.08;53.85;102090.45;1677021;83;21616;-76
2022/09/05 05:01:44;;;;;;;8.08;2.33;;;;;;;11.08;53.94;102094.33;1675452;83;21094;-74
2022/09/05 05:04:29;;;;;;;4.47;1.62;;;;;;;11.12;53.99;102096.08;1673665;85;22191;-74
2022/09/05 05:07:22;;;;;;;2.92;1.75;;;;;;;11.16;54.06;102099.55;1667640;83;21016;-76
2022/09/05 05:10:12;;;;;;;1.98;1.75;;;;;;;11.21;54.11;102101.73;1670167;84;21901;-75
2022/09/05 05:13:15;;;;;;;3.30;2.02;;;;;;;11.25;54.15;102098.31;1672318;85;21585;-75
2022/09/05 05:16:20;;;;;;;2.30;1.55;;;;;;;11.34;54.25;102101.37;1678259;83;21084;-76
2022/09/05 05:19:25;;;;;;;17.90;2.20;;;;;;;11.48;54.30;102102.27;1628861;85;21047;-75
2022/09/05 05:22:16;;;;;;;7.27;2.33;;;;;;;11.62;54.26;102108.37;1650587;85;21080;-75
2022/09/05 05:25:01;;;;;;;5.67;1.80;;;;;;;11.76;54.33;102109.72;1650920;85;21949;-76
2022/09/05 05:28:06;;;;;;;6.92;1.50;;;;;;;11.88;54.39;102109.36;1647706;85;21407;-74
2022/09/05 05:30:52;;;;;;;16.23;1.95;;;;;;;12.01;54.39;102114.54;1652057;85;21711;-76
2022/09/05 05:33:39;;;;;;;8.58;1.80;;;;;;;12.12;54.43;102116.30;1652385;85;20952;-76
2022/09/05 05:36:34;;;;;;;4.55;1.55;;;;;;;12.33;54.52;102112.87;1638841;83;20961;-76
2022/09/05 05:39:30;;;;;;;2.72;1.70;;;;;;;12.55;54.49;102122.36;1643600;85;448680;-76
2022/09/05 05:42:22;;;;;;;3.40;1.67;;;;;;;12.67;54.46;102124.52;1649989;85;20942;-76
2022/09/05 05:45:27;;;;;;;3.22;1.37;;;;;;;12.72;54.48;102114.57;1639530;86;20965;-76
2022/09/05 05:48:23;;;;;;;3.05;1.90;;;;;;;12.87;54.52;102122.34;1643820;85;20982;-76
2022/09/05 05:51:41;;;;;;;25.97;2.42;;;;;;;13.04;54.57;102122.72;1629598;85;21078;-75
2022/09/05 05:55:07;;;;;;;5.95;2.15;;;;;;;13.32;54.58;102117.05;1621086;85;20978;-75
2022/09/05 05:58:35;;;;;;;4.70;1.80;;;;;;;13.66;54.54;102118.63;1632745;85;21078;-76
2022/09/05 06:01:51;;;;;;;4.83;1.75;;;;;;;13.86;54.44;102121.13;1663786;84;20927;-74
2022/09/05 06:05:14;;;;;;;2.72;1.60;;;;;;;14.06;54.50;102118.38;1651996;84;20934;-76
2022/09/05 06:08:20;;;;;;;5.12;1.57;;;;;;;14.35;54.59;102122.95;1670536;82;20946;-76
2022/09/05 06:11:35;;;;;;;21.60;2.22;;;;;;;14.89;54.66;102124.23;1656852;84;20981;-76
2022/09/05 06:15:02;;;;;;;5.42;1.60;;;;;;;15.64;54.67;102126.42;1632315;84;20950;-76
2022/09/05 06:18:35;;;;;;;3.85;1.52;;;;;;;16.41;54.70;102123.97;1659678;84;20967;-76
2022/09/05 06:21:44;;;;;;;5.30;1.75;;;;;;;17.29;54.58;102116.72;1674891;84;21064;-75
2022/09/05 06:25:15;;;;;;;3.52;1.42;;;;;;;18.20;54.38;102118.64;1665920;84;21064;-75
2022/09/05 06:28:33;;;;;;;8.50;1.80;;;;;;;18.99;54.21;102123.64;1677174;83;21053;-75
2022/09/05 06:31:58;;;;;;;4.17;1.47;;;;;;;19.76;53.86;102129.72;1653626;84;21077;-76
2022/09/05 06:35:27;;;;;;;3.00;1.50;;;;;;;20.52;53.39;102130.40;1659915;85;21525;-76
2022/09/05 06:38:48;;;;;;;4.17;1.40;;;;;;;21.10;53.03;102127.45;1664950;85;21101;-76
2022/09/05 06:41:53;;;;;;;2.77;1.40;;;;;;;21.81;52.67;102125.70;1664688;84;21069;-76
2022/09/05 06:45:03;;;;;;;5.37;1.37;;;;;;;22.36;52.22;102126.97;1668677;85;21121;-76
2022/09/05 06:47:52;;;;;;;4.10;1.50;;;;;;;22.95;51.90;102123.59;1667890;84;21608;-75
2022/09/05 06:50:58;;;;;;;4.40;1.52;;;;;;;23.39;51.62;102131.31;1657683;84;21603;-75
2022/09/05 06:54:06;;;;;;;5.87;1.30;;;;;;;23.89;51.20;102134.27;1663181;84;21133;-75
2022/09/05 06:57:14;;;;;;;2.00;1.17;;;;;;;24.31;50.88;102133.98;1665630;85;21105;-75
2022/09/05 07:00:28;;;;;;;3.20;1.30;;;;;;;24.91;50.47;102138.41;1638421;85;21042;-75
2022/09/05 07:03:51;;;;;;;3.67;1.50;;;;;;;25.40;49.57;102139.79;1674306;85;21450;-75
2022/09/05 07:06:43;;;;;;;8.65;1.70;;;;;;;25.89;49.74;102139.28;1650918;84;21860;-75
2022/09/05 07:09:51;;;;;;;2.67;1.45;;;;;;;26.61;49.48;102141.27;1671525;83;21069;-76
2022/09/05 07:12:47;;;;;;;4.50;1.47;;;;;;;27.35;48.80;102142.52;1672004;84;21100;-76
2022/09/05 07:15:54;;;;;;;2.83;1.40;;;;;;;27.89;48.36;102139.97;1673713;83;21113;-76
2022/09/05 07:19:03;;;;;;;3.70;0.90;;;;;;;28.24;47.76;102146.13;1668387;84;21061;-75
2022/09/05 07:21:56;;;;;;;1.67;0.95;;;;;;;28.37;46.77;102143.03;1669594;84;21098;-75
2022/09/05 07:24:44;;;;;;;5.60;1.00;;;;;;;28.69;46.35;102143.50;1669276;85;21093;-75
2022/09/05 07:27:50;;;;;;;3.02;0.93;;;;;;;28.91;45.33;102149.58;1671421;84;22368;-75
2022/09/05 07:30:39;;;;;;;0.93;0.68;;;;;;;29.11;44.53;102150.38;1674519;83;21538;-76
2022/09/05 07:33:28;;;;;;;4.15;1.00;;;;;;;28.97;44.12;102151.34;1677359;83;21042;-75
2022/09/05 07:36:19;;;;;;;2.67;1.20;;;;;;;29.11;43.55;102151.71;1662765;84;21124;-75
2022/09/05 07:39:05;;;;;;;1.60;0.70;;;;;;;29.23;42.55;102160.15;1667875;84;20963;-75
2022/09/05 07:41:55;;;;;;;;;;;;;;;29.47;41.75;102159.41;1670123;83;20922;-76
2022/09/05 07:44:45;;;;;;;1.22;0.90;;;;;;;29.31;41.89;102163.61;1667864;83;20460;-76
2022/09/05 07:47:35;;;;;;;0.85;0.70;;;;;;;29.01;41.09;102162.63;1677716;83;21764;-76
2022/09/05 07:50:20;;;;;;;3.20;0.68;;;;;;;28.41;41.05;102162.31;1651636;85;21049;-76
2022/09/05 07:53:07;;;;;;;4.12;0.80;;;;;;;28.44;40.69;102154.12;1675923;83;21021;-76
2022/09/05 07:56:02;;;;;;;2.05;0.75;;;;;;;28.05;40.25;102150.95;1665698;83;21054;-76
2022/09/05 07:58:50;;;;;;;2.08;0.90;;;;;;;28.11;40.08;102158.02;1666296;84;20963;-76
2022/09/05 08:01:40;;;;;;;5.17;0.95;;;;;;;29.27;38.77;102165.63;1641356;85;20915;-74
2022/09/05 08:04:29;;;;;;;2.05;1.20;;;;;;;30.54;38.09;102155.87;1674356;84;21384;-76
2022/09/05 08:07:22;;;;;;;1.15;1.05;;;;;;;31.90;37.55;102162.52;1672325;83;20950;-76
2022/09/05 08:10:19;;;;;;;1.30;1.10;;;;;;;32.56;36.56;102168.11;1642601;85;20933;-76
2022/09/05 08:13:11;;;;;;;11.88;1.70;;;;;;;33.32;35.75;102167.85;1658029;84;20952;-76
2022/09/05 08:15:58;;;;;;;2.52;1.50;;;;;;;34.17;35.82;102165.03;1684471;82;20950;-76
2022/09/05 08:19:08;;;;;;;3.92;1.20;;;;;;;34.98;34.46;102168.69;1679600;83;20906;-77
2022/09/05 08:21:55;;;;;;;3.10;1.37;;;;;;;35.49;34.55;102167.70;1656758;82;21475;-77
2022/09/05 08:24:46;;;;;;;1.92;1.35;;;;;;;36.18;34.10;102166.27;1650581;84;21756;-77
2022/09/05 08:27:55;;;;;;;2.17;1.42;;;;;;;36.74;33.47;102166.42;1661458;84;20918;-77
2022/09/05 08:30:47;;;;;;;1.40;1.30;;;;;;;37.35;33.19;102172.16;1658077;84;20962;-77
2022/09/05 08:33:37;;;;;;;3.35;1.80;;;;;;;38.03;32.76;102159.34;1664721;84;20910;-77
2022/09/05 08:36:40;;;;;;;4.62;1.30;;;;;;;38.23;32.44;102161.75;1666134;84;21406;-77
2022/09/05 08:39:30;;;;;;;3.45;1.50;;;;;;;38.10;32.03;102156.81;1655509;84;21053;-77
2022/09/05 08:42:33;;;;;;;3.00;1.30;;;;;;;35.72;31.45;102152.50;1659897;84;21256;-77
2022/09/05 08:45:43;;;;;;;1.67;1.00;;;;;;;33.35;32.16;102152.84;1669380;83;21081;-77
2022/09/05 08:49:10;;;;;;;1.72;1.00;;;;;;;31.68;32.17;102142.04;1657991;84;21089;-76
2022/09/05 08:52:15;;;;;;;1.32;0.88;;;;;;;30.11;31.60;102135.59;1560449;89;21194;-76
2022/09/05 08:55:11;;;;;;;2.00;0.90;;;;;;;28.34;31.43;102130.78;1556233;89;21642;-76
2022/09/05 08:58:02;;;;;;;;;;;;;;;27.35;31.35;102129.70;1571825;89;21143;-76
2022/09/05 09:00:54;;;;;;;1.32;0.90;;;;;;;26.48;31.40;102117.77;1563701;89;20191;-74
2022/09/05 09:04:09;;;;;;;4.53;1.22;;;;;;;25.56;30.86;102121.23;1562221;89;21695;-74
2022/09/05 09:07:15;;;;;;;6.55;1.10;;;;;;;24.76;30.79;102119.34;1564923;89;21179;-75
2022/09/05 09:10:28;;;;;;;2.72;1.17;;;;;;;23.54;30.98;102110.81;1563790;89;21135;-75
2022/09/05 09:13:52;;;;;;;1.47;1.00;;;;;;;23.54;30.98;102110.81;1570191;89;21194;-75
2022/09/05 09:16:52;;;;;;;2.80;1.05;;;;;;;23.00;30.65;102113.69;1566768;89;21672;-74
2022/09/05 09:20:08;;;;;;;4.37;0.90;;;;;;;22.50;30.68;102107.95;1549168;89;21104;-76
2022/09/05 09:23:04;;;;;;;1.80;1.00;;;;;;;22.19;30.75;102103.58;1628250;84;22342;-75
2022/09/05 09:26:00;;;;;;;1.72;0.80;;;;;;;21.78;30.83;102105.61;1664402;84;21046;-75
2022/09/05 09:28:50;;;;;;;7.30;1.00;;;;;;;21.52;30.87;102103.12;1661277;85;21490;-75
2022/09/05 09:32:10;;;;;;;2.05;0.90;;;;;;;21.33;30.99;102100.77;1662706;85;20970;-76
2022/09/05 09:35:06;;;;;;;1.57;0.72;;;;;;;21.14;31.13;102104.53;1654268;84;21098;-75
2022/09/05 09:38:10;;;;;;;;;;;;;;;21.02;31.13;102099.71;1670317;84;21061;-75
2022/09/05 09:41:18;;;;;;;7.45;0.85;;;;;;;20.88;31.92;102100.20;1656190;84;20476;-75
2022/09/05 09:44:23;;;;;;;6.58;1.12;;;;;;;20.75;31.41;102096.31;1623164;84;21037;-75
2022/09/05 09:47:16;;;;;;;2.98;0.70;;;;;;;20.70;31.45;102091.21;1658165;84;21063;-74
2022/09/05 09:50:18;;;;;;;2.60;0.65;;;;;;;20.62;31.51;102095.02;1654144;84;21095;-75
2022/09/05 09:53:23;;;;;;;2.47;0.88;;;;;;;20.52;31.54;102088.35;1665097;84;21101;-75
2022/09/05 09:56:45;;;;;;;1.63;0.80;;;;;;;20.53;31.69;102088.75;1656335;84;21015;-75
2022/09/05 10:00:06;;;;;;;0.50;0.50;;;;;;;20.55;31.78;102085.62;1665772;84;21043;-75
2022/09/05 10:03:23;;;;;;;1.47;0.72;;;;;;;20.53;31.72;102077.78;1642829;85;21045;-74
2022/09/05 10:06:36;;;;;;;3.08;0.93;;;;;;;20.55;31.86;102089.56;1654549;84;21556;-74
2022/09/05 10:10:15;;;;;;;4.08;0.60;;;;;;;20.51;31.91;102081.37;1627131;84;21098;-75
2022/09/05 10:13:41;;;;;;;2.90;0.60;;;;;;;20.54;31.93;102071.63;1630190;86;21075;-75
2022/09/05 10:16:35;;;;;;;4.08;0.53;;;;;;;20.55;32.03;102066.77;1664956;84;21017;-75
2022/09/05 10:19:47;;;;;;;1.55;0.50;;;;;;;20.57;32.12;102066.26;1662454;84;21629;-75
2022/09/05 10:22:43;;;;;;;3.15;0.50;;;;;;;20.57;31.99;102067.57;1675503;84;21077;-75
2022/09/05 10:26:09;;;;;;;3.10;0.42;;;;;;;20.59;31.96;102067.52;1669366;82;21053;-75
2022/09/05 10:29:10;;;;;;;2.50;0.40;;;;;;;20.63;32.05;102065.19;1667902;84;21057;-75
2022/09/05 10:32:07;;;;;;;4.17;0.62;;;;;;;20.65;31.99;102066.00;1670496;84;21421;-75
2022/09/05 10:34:59;;;;;;;0.72;0.47;;;;;;;20.66;31.86;102063.77;1665717;84;21117;-75
2022/09/05 10:37:56;;;;;;;1.57;0.40;;;;;;;20.65;31.96;102067.31;1667712;84;21065;-75
2022/09/05 10:40:45;;;;;;;4.40;0.30;;;;;;;20.65;32.03;102047.59;1660339;84;21137;-75
2022/09/05 10:43:32;;;;;;;1.75;0.30;;;;;;;20.71;32.12;102053.50;1660763;84;21062;-78
2022/09/05 10:46:52;;;;;;;1.47;0.35;;;;;;;20.78;32.04;102043.63;1664283;84;21461;-74
2022/09/05 10:49:49;;;;;;;1.00;0.20;;;;;;;20.81;31.64;102054.00;1659826;84;21137;-75
2022/09/05 10:52:38;;;;;;;5.08;0.40;;;;;;;20.79;31.69;102047.52;1667467;84;20919;-75
2022/09/05 10:55:28;;;;;;;3.70;0.40;;;;;;;20.77;31.89;102031.39;1666996;84;20992;-75
2022/09/05 10:58:43;;;;;;;3.50;0.37;;;;;;;20.84;31.80;102038.11;1660786;84;21129;-74
2022/09/05 11:01:40;;;;;;;3.75;0.55;;;;;;;20.88;31.92;102039.72;1658236;85;21089;-74
2022/09/05 11:04:49;;;;;;;0.42;0.20;;;;;;;20.95;31.97;102038.58;1657111;84;21094;-74
2022/09/05 11:08:07;;;;;;;4.33;0.20;;;;;;;21.04;31.95;102036.08;1652614;84;21045;-74
2022/09/05 11:11:21;;;;;;;0.78;0.30;;;;;;;21.11;32.06;102041.52;1658704;84;21334;-74
2022/09/05 11:14:14;;;;;;;2.62;0.20;;;;;;;21.19;32.04;102030.70;1673637;83;21080;-74
2022/09/05 11:17:11;;;;;;;0.60;0.30;;;;;;;21.21;31.99;102029.77;1650221;84;21154;-75
2022/09/05 11:20:42;;;;;;;3.92;0.40;;;;;;;21.24;32.00;102028.79;1649174;84;21103;-75
2022/09/05 11:23:37;;;;;;;0.80;0.30;;;;;;;21.28;31.96;102039.59;1658353;84;21089;-74
2022/09/05 11:26:52;;;;;;;2.52;0.30;;;;;;;21.18;31.91;102031.16;1667493;84;21104;-74
2022/09/05 11:29:47;;;;;;;0.30;0.30;;;;;;;21.19;31.91;102035.97;1523399;90;21084;-74
2022/09/05 11:33:03;;;;;;;0.72;0.30;;;;;;;21.19;31.94;102021.50;1552550;90;21056;-74
2022/09/05 11:36:11;;;;;;;2.35;0.30;;;;;;;21.21;31.99;102020.98;1552920;90;21166;-74
2022/09/05 11:39:34;;;;;;;1.90;0.40;;;;;;;21.25;31.96;102030.05;1608269;87;22284;-74
2022/09/05 11:42:30;;;;;;;1.75;0.20;;;;;;;21.24;31.93;102019.58;1598052;88;21721;-75
2022/09/05 11:45:26;;;;;;;1.77;0.40;;;;;;;21.26;31.98;102024.33;1590394;85;21125;-75
2022/09/05 11:48:54;;;;;;;3.20;0.40;;;;;;;21.29;32.02;102025.53;1612690;86;21097;-75
2022/09/05 11:52:26;;;;;;;1.05;0.35;;;;;;;21.30;31.93;102025.47;1609173;88;21108;-75
2022/09/05 11:55:34;;;;;;;2.22;0.30;;;;;;;21.32;31.83;102019.66;1597805;88;21127;-74
2022/09/05 11:59:16;;;;;;;0.20;0.20;;;;;;;21.31;31.83;102016.66;1598358;88;21133;-74
2022/09/05 12:02:32;;;;;;;1.32;0.30;;;;;;;21.31;31.80;102023.23;1672894;83;21497;-74
2022/09/05 12:05:56;;;;;;;6.22;0.30;;;;;;;21.34;31.84;102016.97;1669383;84;22254;-74
2022/09/05 12:09:17;;;;;;;0.30;0.20;;;;;;;21.37;31.82;102014.22;1672621;84;21120;-74
2022/09/05 12:12:36;;;;;;;0.15;0.10;;;;;;;21.35;31.76;102010.33;1667285;84;21061;-75
2022/09/05 12:15:36;;;;;;;3.27;0.20;;;;;;;21.38;31.78;102010.67;1639475;85;20991;-74
2022/09/05 12:18:55;;;;;;;2.20;0.30;;;;;;;21.44;31.80;102015.23;1663372;84;20934;-75
2022/09/05 12:22:01;;;;;;;2.08;0.40;;;;;;;21.47;31.77;102005.05;1667843;84;20934;-75
2022/09/05 12:25:11;;;;;;;1.77;0.20;;;;;;;21.50;31.75;102008.88;1628729;86;20947;-75
2022/09/05 12:28:06;;;;;;;3.80;0.20;;;;;;;21.45;31.41;102010.83;1627632;86;21428;-76
2022/09/05 12:30:57;;;;;;;0.85;0.20;;;;;;;21.50;31.52;102004.08;1615144;86;21405;-74
2022/09/05 12:33:46;;;;;;;2.65;0.20;;;;;;;21.47;31.47;102003.73;1629300;86;20987;-75
2022/09/05 12:36:44;;;;;;;0.60;0.30;;;;;;;21.42;31.55;101996.02;1629055;86;21523;-74
2022/09/05 12:39:46;;;;;;;2.75;0.55;;;;;;;21.43;31.59;101979.31;1625296;86;21107;-75
2022/09/05 12:42:58;;;;;;;0.90;0.30;;;;;;;21.46;31.53;101987.09;1615087;86;21161;-74
2022/09/05 12:46:07;;;;;;;0.28;0.23;;;;;;;21.48;31.31;101979.13;1611805;86;21655;-75
2022/09/05 12:49:00;;;;;;;3.58;0.40;;;;;;;21.51;31.45;101980.78;1611161;86;21168;-74
2022/09/05 12:51:56;;;;;;;1.95;0.23;;;;;;;21.53;31.38;101982.44;1632591;86;21085;-74
2022/09/05 12:54:53;;;;;;;1.17;0.23;;;;;;;21.57;31.46;101977.91;1627805;86;21062;-75
2022/09/05 12:57:42;;;;;;;0.37;0.10;;;;;;;21.59;31.35;101976.08;1629257;86;20991;-75
2022/09/05 13:00:33;;;;;;;1.50;0.30;;;;;;;21.60;31.22;101988.31;1633988;86;21561;-75
2022/09/05 13:03:26;;;;;;;0.25;0.20;;;;;;;21.63;31.25;101978.98;1628865;86;21066;-77
2022/09/05 13:06:22;;;;;;;0.20;0.20;;;;;;;21.63;31.29;101980.30;1626795;86;21105;-79
2022/09/05 13:09:16;;;;;;;1.05;0.30;;;;;;;21.69;31.21;101978.27;1628606;86;21116;-79
2022/09/05 13:12:23;;;;;;;1.95;0.30;;;;;;;21.71;31.19;101981.70;1629363;86;21077;-78
2022/09/05 13:15:23;;;;;;;0.33;0.10;;;;;;;21.73;31.01;101975.91;1630606;86;21197;-78
2022/09/05 13:18:19;;;;;;;1.52;1.00;;;;;;;21.66;31.05;101966.55;1627570;86;20976;-78
2022/09/05 13:21:13;;;;;;;1.60;0.20;;;;;;;21.72;31.17;101969.39;1617789;86;20963;-79
2022/09/05 13:24:16;;;;;;;0.28;0.20;;;;;;;21.78;31.15;101974.41;1635653;85;20954;-77
2022/09/05 13:27:12;;;;;;;0.88;0.30;;;;;;;21.83;30.97;101968.95;1655456;84;20934;-77
2022/09/05 13:30:06;;;;;;;4.85;0.50;;;;;;;21.85;30.95;101968.40;1648926;84;20982;-76
2022/09/05 13:32:55;;;;;;;0.20;0.20;;;;;;;21.83;30.90;101961.91;1658997;84;20935;-76
2022/09/05 13:35:52;;;;;;;1.05;0.45;;;;;;;21.82;30.96;101960.66;1661748;84;20967;-76
2022/09/05 13:39:05;;;;;;;5.28;0.30;;;;;;;21.84;30.96;101958.33;1656378;84;20927;-76
2022/09/05 13:41:58;;;;;;;5.62;0.40;;;;;;;21.82;30.93;101946.17;1663128;84;20951;-76
2022/09/05 13:44:45;;;;;;;0.10;0.10;;;;;;;21.80;30.93;101946.23;1668675;84;20938;-76
2022/09/05 13:47:58;;;;;;;0.37;0.20;;;;;;;21.80;30.89;101944.92;1653384;85;20970;-78
2022/09/05 13:50:53;;;;;;;1.72;0.40;;;;;;;21.80;30.80;101941.83;1665369;84;21037;-78
2022/09/05 13:53:50;;;;;;;1.70;0.20;;;;;;;21.77;30.85;101935.37;1657858;85;21115;-78
2022/09/05 13:56:32;;;;;;;1.92;0.20;;;;;;;21.77;30.74;101935.37;1642814;85;21541;-78
2022/09/05 13:59:23;;;;;;;0.20;0.20;;;;;;;21.76;30.78;101932.34;1659759;83;21093;-78
2022/09/05 14:02:44;;;;;;;0.72;0.15;;;;;;;21.75;30.67;101925.83;1662560;85;21656;-78
2022/09/05 14:05:50;;;;;;;2.08;0.20;;;;;;;21.73;30.45;101925.89;1661469;85;21115;-78
2022/09/05 14:09:03;;;;;;;2.05;0.30;;;;;;;21.70;30.48;101927.79;1660489;84;21077;-78
2022/09/05 14:11:57;;;;;;;2.37;0.20;;;;;;;21.69;30.57;101924.30;1660892;84;21112;-78
2022/09/05 14:15:07;;;;;;;0.25;0.20;;;;;;;21.73;30.58;101927.66;1653791;84;21083;-78
2022/09/05 14:18:15;;;;;;;0.50;0.30;;;;;;;21.74;30.62;101917.07;1661805;84;21113;-78